createdAt,value
2022-10-14T00:01:21.385Z,8.00
2022-10-14T00:03:50.317Z,8.40
2022-10-14T00:06:24.910Z,7.80
2022-10-14T00:08:52.840Z,7.88
2022-10-14T00:11:29.147Z,9.25
2022-10-14T00:13:59.939Z,8.07
2022-10-14T00:16:33.251Z,7.17
2022-10-14T00:19:01.531Z,7.05
2022-10-14T00:21:29.853Z,7.50
2022-10-14T00:23:58.144Z,7.97
2022-10-14T00:26:30.933Z,6.83
2022-10-14T00:29:00.433Z,7.55
2022-10-14T00:31:32.680Z,7.30
2022-10-14T00:34:00.464Z,7.03
2022-10-14T00:36:28.028Z,7.03
2022-10-14T00:38:55.599Z,7.07
2022-10-14T00:41:28.512Z,6.55
2022-10-14T00:44:04.322Z,6.93
2022-10-14T00:46:38.154Z,7.05
2022-10-14T00:49:31.713Z,7.10
2022-10-14T00:52:03.462Z,6.70
2022-10-14T00:54:47.863Z,5.97
2022-10-14T00:57:16.950Z,6.82
2022-10-14T00:59:44.560Z,6.55
2022-10-14T01:02:12.203Z,5.83
2022-10-14T01:04:43.267Z,6.47
2022-10-14T01:07:13.921Z,6.57
2022-10-14T01:09:50.730Z,6.10
2022-10-14T01:12:29.012Z,5.72
2022-10-14T01:15:05.070Z,6.17
2022-10-14T01:17:45.282Z,5.07
2022-10-14T01:20:31.566Z,5.23
2022-10-14T01:23:36.152Z,5.63
2022-10-14T01:26:29.338Z,5.70
2022-10-14T01:28:56.804Z,5.37
2022-10-14T01:31:32.704Z,5.80
2022-10-14T01:34:03.105Z,5.88
2022-10-14T01:36:39.551Z,5.00
2022-10-14T01:39:18.383Z,5.00
2022-10-14T01:41:51.439Z,5.93
2022-10-14T01:44:23.405Z,5.40
2022-10-14T01:46:55.586Z,5.97
2022-10-14T01:49:33.038Z,4.93
2022-10-14T01:52:10.414Z,5.65
2022-10-14T01:54:42.937Z,5.25
2022-10-14T01:57:19.252Z,5.20
2022-10-14T01:59:48.031Z,5.10
2022-10-14T02:02:15.607Z,5.28
2022-10-14T02:04:43.046Z,5.60
2022-10-14T02:07:26.180Z,5.00
2022-10-14T02:10:22.425Z,5.13
2022-10-14T02:13:17.507Z,4.60
2022-10-14T02:16:08.542Z,5.27
2022-10-14T02:18:46.046Z,5.33
2022-10-14T02:21:38.542Z,5.72
2022-10-14T02:24:36.914Z,5.37
2022-10-14T02:27:09.639Z,6.20
2022-10-14T02:29:40.497Z,5.37
2022-10-14T02:32:09.214Z,5.97
2022-10-14T02:34:39.194Z,5.33
2022-10-14T02:37:12.551Z,4.97
2022-10-14T02:39:46.991Z,6.18
2022-10-14T02:42:14.627Z,5.20
2022-10-14T02:44:56.094Z,5.90
2022-10-14T02:47:24.654Z,5.33
2022-10-14T02:49:52.539Z,5.53
2022-10-14T02:52:20.893Z,5.73
2022-10-14T02:54:48.526Z,5.90
2022-10-14T02:57:16.889Z,5.33
2022-10-14T02:59:44.437Z,5.70
2022-10-14T03:02:11.948Z,5.60
2022-10-14T03:04:41.634Z,5.77
2022-10-14T03:07:10.202Z,5.57
2022-10-14T03:09:43.515Z,6.23
2022-10-14T03:12:11.477Z,6.03
2022-10-14T03:14:39.341Z,5.47
2022-10-14T03:17:09.583Z,5.70
2022-10-14T03:19:37.415Z,5.40
2022-10-14T03:22:05.082Z,5.73
2022-10-14T03:24:33.998Z,5.73
2022-10-14T03:27:36.958Z,5.47
2022-10-14T03:30:09.709Z,6.47
2022-10-14T03:32:45.317Z,5.90
2022-10-14T03:35:31.458Z,5.67
2022-10-14T03:38:03.035Z,5.37
2022-10-14T03:40:34.143Z,5.80
2022-10-14T03:43:04.064Z,5.63
2022-10-14T03:45:40.859Z,6.50
2022-10-14T03:48:11.247Z,6.03
2022-10-14T03:50:40.537Z,6.50
2022-10-14T03:53:09.536Z,6.07
2022-10-14T03:55:38.150Z,5.90
2022-10-14T03:58:07.053Z,6.57
2022-10-14T04:00:35.981Z,6.63
2022-10-14T04:03:22.313Z,6.80
2022-10-14T04:05:49.866Z,7.63
2022-10-14T04:08:21.879Z,6.67
2022-10-14T04:11:02.700Z,6.27
2022-10-14T04:13:37.158Z,6.07
2022-10-14T04:16:07.243Z,6.40
2022-10-14T04:18:39.593Z,6.47
2022-10-14T04:21:12.485Z,6.50
2022-10-14T04:23:42.553Z,6.17
2022-10-14T04:26:16.343Z,6.97
2022-10-14T04:28:46.668Z,5.97
2022-10-14T04:31:23.945Z,5.80
2022-10-14T04:33:57.271Z,7.03
2022-10-14T04:36:31.204Z,6.47
2022-10-14T04:39:01.038Z,6.00
2022-10-14T04:41:29.469Z,6.53
2022-10-14T04:43:59.525Z,6.77
2022-10-14T04:46:39.243Z,9.20
2022-10-14T04:49:09.086Z,6.73
2022-10-14T04:51:40.960Z,6.57
2022-10-14T04:54:32.356Z,6.80
2022-10-14T04:57:01.278Z,7.43
2022-10-14T04:59:30.067Z,6.90
2022-10-14T05:02:14.988Z,7.13
2022-10-14T05:04:49.446Z,7.50
2022-10-14T05:07:17.706Z,7.80
2022-10-14T05:09:50.403Z,8.17
2022-10-14T05:12:28.653Z,7.30
2022-10-14T05:15:00.487Z,7.47
2022-10-14T05:17:37.738Z,7.20
2022-10-14T05:20:07.290Z,7.50
2022-10-14T05:22:36.353Z,7.77
2022-10-14T05:25:05.255Z,8.05
2022-10-14T05:27:33.005Z,7.13
2022-10-14T05:30:02.758Z,6.47
2022-10-14T05:32:31.191Z,7.13
2022-10-14T05:35:04.083Z,6.40
2022-10-14T05:37:37.042Z,7.18
2022-10-14T05:40:05.153Z,6.93
2022-10-14T05:42:36.060Z,8.32
2022-10-14T05:45:05.057Z,9.45
2022-10-14T05:47:35.191Z,6.20
2022-10-14T05:50:12.675Z,6.15
2022-10-14T05:52:43.560Z,6.47
2022-10-14T05:55:19.940Z,6.75
2022-10-14T05:57:48.986Z,6.18
2022-10-14T06:00:25.577Z,7.38
2022-10-14T06:03:01.311Z,7.05
2022-10-14T06:05:29.011Z,6.38
2022-10-14T06:07:56.563Z,6.30
2022-10-14T06:10:24.079Z,7.05
2022-10-14T06:12:51.552Z,5.28
2022-10-14T06:15:19.198Z,5.18
2022-10-14T06:17:46.775Z,4.45
2022-10-14T06:20:14.995Z,5.53
2022-10-14T06:22:42.571Z,5.63
2022-10-14T06:25:12.399Z,4.90
2022-10-14T06:27:42.082Z,4.60
2022-10-14T06:30:10.447Z,4.68
2022-10-14T06:32:40.378Z,4.85
2022-10-14T06:35:08.298Z,5.07
2022-10-14T06:37:36.528Z,4.82
2022-10-14T06:40:05.407Z,4.57
2022-10-14T06:42:34.190Z,7.40
2022-10-14T06:45:01.942Z,5.55
2022-10-14T06:47:31.713Z,4.70
2022-10-14T06:49:59.306Z,6.10
2022-10-14T06:52:26.745Z,4.95
2022-10-14T06:54:54.327Z,5.25
2022-10-14T06:57:21.894Z,4.97
2022-10-14T06:59:49.450Z,4.30
2022-10-14T07:02:17.173Z,4.55
2022-10-14T07:04:44.722Z,4.90
2022-10-14T07:07:12.145Z,5.43
2022-10-14T07:09:39.638Z,4.88
2022-10-14T07:12:07.230Z,4.25
2022-10-14T07:14:35.990Z,4.25
2022-10-14T07:17:03.855Z,3.40
2022-10-14T07:19:31.289Z,3.70
2022-10-14T07:21:58.862Z,3.10
2022-10-14T07:24:26.349Z,3.40
2022-10-14T07:26:54.091Z,4.80
2022-10-14T07:29:21.582Z,3.92
2022-10-14T07:31:49.111Z,3.90
2022-10-14T07:34:16.518Z,4.00
2022-10-14T07:36:43.998Z,4.72
2022-10-14T07:39:11.739Z,4.03
2022-10-14T07:41:40.172Z,4.18
2022-10-14T07:44:09.675Z,3.28
2022-10-14T07:46:40.616Z,3.15
2022-10-14T07:49:14.692Z,2.97
2022-10-14T07:51:43.073Z,2.88
2022-10-14T07:54:23.531Z,3.38
2022-10-14T07:56:51.589Z,3.53
2022-10-14T07:59:20.811Z,3.08
2022-10-14T08:01:49.902Z,3.70
2022-10-14T08:04:18.165Z,4.07
2022-10-14T08:06:48.629Z,3.35
2022-10-14T08:09:17.642Z,2.95
2022-10-14T08:11:46.032Z,3.22
2022-10-14T08:14:14.340Z,2.90
2022-10-14T08:16:41.843Z,2.35
2022-10-14T08:19:14.618Z,1.98
2022-10-14T08:21:43.733Z,1.73
2022-10-14T08:24:11.698Z,2.30
2022-10-14T08:26:48.322Z,1.92
2022-10-14T08:29:15.749Z,1.88
2022-10-14T08:31:43.263Z,2.10
2022-10-14T08:34:11.333Z,2.03
2022-10-14T08:36:39.009Z,2.33
2022-10-14T08:39:07.503Z,1.95
2022-10-14T08:42:13.198Z,1.92
2022-10-14T08:44:55.683Z,2.15
2022-10-14T08:47:34.857Z,1.95
2022-10-14T08:50:14.691Z,2.70
2022-10-14T08:52:50.423Z,2.72
2022-10-14T08:55:33.914Z,2.47
2022-10-14T08:58:23.385Z,2.35
2022-10-14T09:00:52.992Z,2.60
2022-10-14T09:03:33.152Z,2.55
2022-10-14T09:06:13.140Z,2.40
2022-10-14T09:08:44.998Z,2.88
2022-10-14T09:11:18.717Z,2.40
2022-10-14T09:13:51.068Z,2.50
2022-10-14T09:16:27.422Z,3.25
2022-10-14T09:19:00.515Z,2.47
2022-10-14T09:21:47.821Z,2.08
2022-10-14T09:24:37.382Z,1.90
2022-10-14T09:29:43.323Z,2.20
2022-10-14T09:32:27.901Z,2.60
2022-10-14T09:34:57.357Z,2.40
2022-10-14T09:37:33.703Z,1.90
2022-10-14T09:40:13.357Z,2.22
2022-10-14T09:43:08.465Z,2.53
2022-10-14T09:45:56.632Z,2.38
2022-10-14T09:48:44.456Z,2.15
2022-10-14T09:51:22.631Z,2.10
2022-10-14T09:53:53.995Z,2.10
2022-10-14T09:56:42.146Z,2.25
2022-10-14T09:59:21.676Z,2.67
2022-10-14T10:01:54.471Z,3.03
2022-10-14T10:04:47.892Z,2.80
2022-10-14T10:07:35.245Z,2.60
2022-10-14T10:10:18.721Z,3.05
2022-10-14T10:12:47.289Z,3.20
2022-10-14T10:15:21.623Z,2.30
2022-10-14T10:17:50.113Z,2.08
2022-10-14T10:20:28.674Z,2.28
2022-10-14T10:22:57.013Z,2.60
2022-10-14T10:25:28.667Z,2.10
2022-10-14T10:27:59.740Z,2.45
2022-10-14T10:30:32.415Z,2.72
2022-10-14T10:33:03.129Z,2.67
2022-10-14T10:35:45.400Z,2.08
2022-10-14T10:38:31.979Z,2.65
2022-10-14T10:41:20.656Z,2.90
2022-10-14T10:44:12.168Z,2.70
2022-10-14T10:47:15.397Z,3.50
2022-10-14T10:50:10.174Z,2.83
2022-10-14T10:53:23.046Z,3.28
2022-10-14T10:56:11.647Z,3.13
2022-10-14T10:59:01.786Z,3.33
2022-10-14T11:01:49.152Z,3.47
2022-10-14T11:07:35.358Z,3.30
2022-10-14T11:10:27.077Z,3.13
2022-10-14T11:13:36.904Z,2.35
2022-10-14T11:16:10.089Z,2.47
2022-10-14T11:18:45.653Z,2.63
2022-10-14T11:21:22.972Z,2.50
2022-10-14T11:24:04.879Z,2.58
2022-10-14T11:26:46.653Z,2.45
2022-10-14T11:29:18.791Z,2.85
2022-10-14T11:32:04.073Z,3.20
2022-10-14T11:35:10.065Z,3.50
2022-10-14T11:38:03.756Z,4.03
2022-10-14T11:40:51.097Z,3.50
2022-10-14T11:44:02.509Z,3.20
2022-10-14T11:46:36.602Z,4.80
2022-10-14T11:49:12.495Z,4.55
2022-10-14T11:51:49.270Z,4.25
2022-10-14T11:54:24.995Z,4.05
2022-10-14T11:57:00.829Z,3.70
2022-10-14T11:59:46.358Z,3.75
2022-10-14T12:02:45.189Z,3.65
2022-10-14T12:05:51.058Z,3.92
2022-10-14T12:08:46.279Z,4.30
2022-10-14T12:11:44.358Z,4.38
2022-10-14T12:14:29.666Z,3.95
2022-10-14T12:17:00.136Z,4.43
2022-10-14T12:19:29.568Z,3.88
2022-10-14T12:22:23.744Z,4.60
2022-10-14T12:24:57.510Z,5.25
2022-10-14T12:27:28.578Z,4.82
2022-10-14T12:29:58.647Z,4.68
2022-10-14T12:32:27.963Z,4.82
2022-10-14T12:35:41.563Z,4.80
2022-10-14T12:38:12.494Z,4.85
2022-10-14T12:40:40.498Z,5.55
2022-10-14T12:43:27.617Z,5.20
2022-10-14T12:46:10.927Z,5.25
2022-10-14T12:48:47.091Z,5.90
2022-10-14T12:51:24.619Z,5.75
2022-10-14T12:54:05.031Z,5.13
2022-10-14T12:56:37.734Z,8.18
2022-10-14T12:59:08.746Z,5.00
2022-10-14T13:01:38.514Z,5.13
2022-10-14T13:04:19.962Z,4.38
2022-10-14T13:07:43.316Z,5.20
2022-10-14T13:10:35.994Z,5.22
2022-10-14T13:13:42.311Z,6.93
2022-10-14T13:16:25.646Z,6.07
2022-10-14T13:18:59.925Z,5.45
2022-10-14T13:21:39.114Z,5.10
2022-10-14T13:24:38.645Z,4.75
2022-10-14T13:27:47.910Z,5.07
2022-10-14T13:30:37.374Z,5.05
2022-10-14T13:33:10.697Z,4.25
2022-10-14T13:36:00.969Z,4.95
2022-10-14T13:38:28.721Z,4.60
2022-10-14T13:40:58.379Z,3.97
2022-10-14T13:43:39.172Z,4.15
2022-10-14T13:46:18.102Z,5.22
2022-10-14T13:48:48.718Z,4.97
2022-10-14T13:51:24.607Z,5.85
2022-10-14T13:54:16.339Z,6.60
2022-10-14T13:56:44.380Z,4.85
2022-10-14T13:59:39.275Z,4.75
2022-10-14T14:02:21.549Z,5.72
2022-10-14T14:04:56.051Z,5.93
2022-10-14T14:10:20.016Z,6.00
2022-10-14T14:12:47.763Z,5.70
2022-10-14T14:15:26.990Z,4.95
2022-10-14T14:17:54.905Z,5.45
2022-10-14T14:20:25.397Z,5.03
2022-10-14T14:22:54.282Z,5.10
2022-10-14T14:25:34.096Z,5.20
2022-10-14T14:28:05.985Z,5.28
2022-10-14T14:30:39.107Z,5.68
2022-10-14T14:33:16.891Z,5.00
2022-10-14T14:35:54.471Z,5.72
2022-10-14T14:38:28.626Z,5.25
2022-10-14T14:41:06.358Z,4.93
2022-10-14T14:43:47.375Z,5.50
2022-10-14T14:46:22.074Z,6.07
2022-10-14T14:48:54.924Z,4.63
2022-10-14T14:51:23.787Z,6.15
2022-10-14T14:53:55.869Z,6.13
2022-10-14T14:56:33.057Z,5.97
2022-10-14T14:59:19.036Z,4.88
2022-10-14T15:01:46.661Z,4.68
2022-10-14T15:04:34.950Z,4.55
2022-10-14T15:07:15.330Z,5.22
2022-10-14T15:09:53.078Z,4.88
2022-10-14T15:12:25.795Z,4.90
2022-10-14T15:14:55.758Z,5.20
2022-10-14T15:17:34.308Z,4.85
2022-10-14T15:20:04.545Z,5.38
2022-10-14T15:22:37.276Z,5.68
2022-10-14T15:25:25.658Z,5.15
2022-10-14T15:27:55.869Z,5.07
2022-10-14T15:30:41.199Z,5.18
2022-10-14T15:33:23.141Z,5.10
2022-10-14T15:35:57.534Z,4.40
2022-10-14T15:38:26.332Z,4.68
2022-10-14T15:40:53.941Z,4.93
2022-10-14T15:43:24.225Z,4.90
2022-10-14T15:46:16.785Z,5.15
2022-10-14T15:48:50.914Z,5.50
2022-10-14T15:51:23.670Z,4.90
2022-10-14T15:53:52.039Z,4.30
2022-10-14T15:56:21.259Z,5.03
2022-10-14T15:58:49.337Z,4.72
2022-10-14T16:01:20.748Z,6.20
2022-10-14T16:03:49.844Z,5.45
2022-10-14T16:06:17.348Z,4.97
2022-10-14T16:08:46.603Z,4.80
2022-10-14T16:11:29.269Z,4.63
2022-10-14T16:13:57.523Z,5.85
2022-10-14T16:16:34.024Z,4.70
2022-10-14T16:19:02.494Z,5.00
2022-10-14T16:21:30.074Z,7.85
2022-10-14T16:23:58.965Z,5.43
2022-10-14T16:26:26.763Z,5.28
2022-10-14T16:28:54.499Z,5.47
2022-10-14T16:31:22.002Z,5.63
2022-10-14T16:33:57.269Z,5.07
2022-10-14T16:36:26.296Z,5.88
2022-10-14T16:38:57.180Z,4.93
2022-10-14T16:41:28.026Z,5.72
2022-10-14T16:43:55.630Z,5.70
2022-10-14T16:46:46.118Z,4.97
2022-10-14T16:49:14.436Z,5.57
2022-10-14T16:51:43.461Z,5.30
2022-10-14T16:54:11.978Z,4.72
2022-10-14T16:56:54.850Z,4.43
2022-10-14T16:59:23.544Z,4.75
2022-10-14T17:01:51.902Z,4.38
2022-10-14T17:04:23.352Z,3.97
2022-10-14T17:06:58.514Z,4.05
2022-10-14T17:09:26.219Z,4.10
2022-10-14T17:11:55.017Z,4.53
2022-10-14T17:14:24.176Z,3.80
2022-10-14T17:16:52.583Z,3.60
2022-10-14T17:19:20.402Z,4.18
2022-10-14T17:21:48.871Z,3.95
2022-10-14T17:24:17.119Z,3.83
2022-10-14T17:26:47.347Z,3.80
2022-10-14T17:29:15.257Z,3.80
2022-10-14T17:31:46.164Z,3.33
2022-10-14T17:34:13.946Z,4.03
2022-10-14T17:36:41.773Z,4.03
2022-10-14T17:39:16.477Z,4.07
2022-10-14T17:41:48.947Z,4.68
2022-10-14T17:44:16.361Z,4.22
2022-10-14T17:46:44.006Z,4.22
2022-10-14T17:49:12.502Z,4.10
2022-10-14T17:51:40.006Z,4.05
2022-10-14T17:54:10.897Z,4.05
2022-10-14T17:56:39.449Z,3.28
2022-10-14T17:59:10.558Z,3.53
2022-10-14T18:04:25.771Z,3.53
2022-10-14T18:06:54.296Z,3.60
2022-10-14T18:09:21.935Z,3.70
2022-10-14T18:14:40.692Z,3.47
2022-10-14T18:17:13.197Z,3.58
2022-10-14T18:19:41.961Z,3.20
2022-10-14T18:22:11.211Z,4.60
2022-10-14T18:24:39.442Z,5.07
2022-10-14T18:27:07.114Z,4.32
2022-10-14T18:29:34.694Z,4.20
2022-10-14T18:32:02.096Z,4.30
2022-10-14T18:34:29.621Z,4.57
2022-10-14T18:36:57.138Z,3.97
2022-10-14T18:39:24.739Z,3.92
2022-10-14T18:41:52.308Z,4.00
2022-10-14T18:44:19.741Z,3.80
2022-10-14T18:46:47.736Z,3.72
2022-10-14T18:49:15.410Z,3.72
2022-10-14T18:51:43.565Z,4.03
2022-10-14T18:54:17.867Z,3.95
2022-10-14T18:56:45.677Z,4.00
2022-10-14T18:59:19.311Z,3.30
2022-10-14T19:01:50.589Z,3.70
2022-10-14T19:04:19.344Z,3.38
2022-10-14T19:06:49.118Z,3.70
2022-10-14T19:09:24.141Z,3.58
2022-10-14T19:11:52.527Z,3.17
2022-10-14T19:14:22.343Z,3.00
2022-10-14T19:16:49.982Z,3.08
2022-10-14T19:19:20.057Z,2.72
2022-10-14T19:21:50.501Z,3.30
2022-10-14T19:24:18.202Z,3.22
2022-10-14T19:26:50.371Z,2.92
2022-10-14T19:29:18.318Z,3.42
2022-10-14T19:31:45.821Z,3.28
2022-10-14T19:34:16.125Z,3.33
2022-10-14T19:36:45.563Z,3.20
2022-10-14T19:39:15.531Z,3.45
2022-10-14T19:41:44.469Z,3.30
2022-10-14T19:44:13.868Z,2.90
2022-10-14T19:46:42.002Z,3.45
2022-10-14T19:49:12.811Z,3.33
2022-10-14T19:51:40.555Z,3.25
2022-10-14T19:54:08.011Z,3.28
2022-10-14T19:56:35.605Z,3.70
2022-10-14T19:59:03.157Z,3.38
2022-10-14T20:01:31.315Z,3.05
2022-10-14T20:04:02.845Z,3.70
2022-10-14T20:06:33.871Z,2.97
2022-10-14T20:09:02.365Z,3.60
2022-10-14T20:11:30.041Z,3.63
2022-10-14T20:13:57.890Z,3.03
2022-10-14T20:16:27.129Z,3.80
2022-10-14T20:18:55.577Z,3.17
2022-10-14T20:21:23.874Z,3.30
2022-10-14T20:23:51.325Z,3.65
2022-10-14T20:26:21.002Z,5.05
2022-10-14T20:28:49.763Z,4.43
2022-10-14T20:31:20.379Z,3.63
2022-10-14T20:33:48.836Z,3.38
2022-10-14T20:36:19.745Z,3.58
2022-10-14T20:38:48.256Z,4.27
2022-10-14T20:41:19.114Z,3.55
2022-10-14T20:43:47.784Z,3.55
2022-10-14T20:46:16.009Z,3.80
2022-10-14T20:48:44.201Z,3.97
2022-10-14T20:51:17.958Z,3.80
2022-10-14T20:53:45.591Z,3.93
2022-10-14T20:56:13.900Z,3.83
2022-10-14T20:58:41.558Z,3.40
2022-10-14T21:01:08.963Z,3.70
2022-10-14T21:03:36.820Z,3.95
2022-10-14T21:06:06.811Z,3.63
2022-10-14T21:08:34.999Z,3.70
2022-10-14T21:11:06.181Z,4.47
2022-10-14T21:13:35.812Z,3.95
2022-10-14T21:16:16.640Z,3.93
2022-10-14T21:18:57.602Z,4.00
2022-10-14T21:21:28.114Z,3.87
2022-10-14T21:23:56.324Z,3.40
2022-10-14T21:26:24.138Z,3.40
2022-10-14T21:28:52.031Z,4.00
2022-10-14T21:31:20.482Z,3.93
2022-10-14T21:33:53.853Z,4.00
2022-10-14T21:36:21.446Z,3.80
2022-10-14T21:38:48.915Z,3.73
2022-10-14T21:41:16.663Z,4.23
2022-10-14T21:43:44.099Z,3.90
2022-10-14T21:46:14.438Z,4.07
2022-10-14T21:48:43.422Z,4.23
2022-10-14T21:51:13.734Z,3.77
2022-10-14T21:53:44.853Z,3.20
2022-10-14T21:56:13.966Z,4.27
2022-10-14T21:58:41.717Z,3.70
2022-10-14T22:01:15.369Z,4.00
2022-10-14T22:03:43.948Z,3.50
2022-10-14T22:06:16.569Z,3.87
2022-10-14T22:08:46.802Z,4.88
2022-10-14T22:11:22.675Z,3.80
2022-10-14T22:13:51.766Z,3.47
2022-10-14T22:16:19.955Z,3.80
2022-10-14T22:18:50.599Z,3.80
2022-10-14T22:21:21.516Z,4.20
2022-10-14T22:23:50.222Z,3.63
2022-10-14T22:26:23.087Z,4.00
2022-10-14T22:28:56.732Z,3.60
2022-10-14T22:31:24.262Z,4.18
2022-10-14T22:33:51.703Z,3.75
2022-10-14T22:36:24.931Z,3.75
2022-10-14T22:38:53.493Z,3.77
2022-10-14T22:41:22.642Z,3.90
2022-10-14T22:43:52.518Z,3.50
2022-10-14T22:46:23.702Z,3.17
2022-10-14T22:48:58.719Z,3.33
2022-10-14T22:51:32.243Z,3.00
2022-10-14T22:53:59.976Z,3.30
2022-10-14T22:56:29.348Z,3.65
2022-10-14T22:58:59.147Z,3.17
2022-10-14T23:01:28.054Z,2.77
2022-10-14T23:03:57.459Z,3.60
2022-10-14T23:06:25.472Z,3.58
2022-10-14T23:08:54.479Z,3.03
2022-10-14T23:11:24.422Z,3.20
2022-10-14T23:13:52.128Z,3.97
2022-10-14T23:16:22.492Z,3.33
2022-10-14T23:18:50.813Z,3.20
2022-10-14T23:21:19.675Z,3.35
2022-10-14T23:23:48.995Z,3.17
2022-10-14T23:26:21.351Z,3.63
2022-10-14T23:28:53.778Z,3.67
2022-10-14T23:31:28.020Z,3.78
2022-10-14T23:33:58.286Z,2.97
2022-10-14T23:36:26.446Z,3.30
2022-10-14T23:38:53.979Z,3.50
2022-10-14T23:41:23.114Z,3.58
2022-10-14T23:43:52.582Z,3.33
2022-10-14T23:46:20.735Z,3.58
2022-10-14T23:48:55.817Z,3.88
2022-10-14T23:51:35.402Z,3.77
2022-10-14T23:54:03.166Z,4.05
2022-10-14T23:56:30.661Z,3.80
2022-10-14T23:58:58.140Z,3.83
